sensor_id;sensor_type;location;lat;lon;timestamp;P1;durP1;ratioP1;P2;durP2;ratioP2
15443;SDS011;7822;48.146;11.576;2022-11-04T00:01:44;5.93;;;4.03;;
15443;SDS011;7822;48.146;11.576;2022-11-04T00:04:14;5.87;;;4.40;;
15443;SDS011;7822;48.146;11.576;2022-11-04T00:06:44;6.10;;;4.00;;
15443;SDS011;7822;48.146;11.576;2022-11-04T00:09:15;4.13;;;3.73;;
15443;SDS011;7822;48.146;11.576;2022-11-04T00:11:44;6.17;;;4.00;;
15443;SDS011;7822;48.146;11.576;2022-11-04T00:14:44;4.30;;;3.60;;
15443;SDS011;7822;48.146;11.576;2022-11-04T00:17:12;6.77;;;3.40;;
15443;SDS011;7822;48.146;11.576;2022-11-04T00:19:45;4.63;;;2.90;;
15443;SDS011;7822;48.146;11.576;2022-11-04T00:22:41;3.80;;;3.40;;
15443;SDS011;7822;48.146;11.576;2022-11-04T00:25:26;4.17;;;2.63;;
15443;SDS011;7822;48.146;11.576;2022-11-04T00:28:17;4.70;;;2.67;;
15443;SDS011;7822;48.146;11.576;2022-11-04T00:31:04;5.07;;;2.97;;
15443;SDS011;7822;48.146;11.576;2022-11-04T00:33:47;3.60;;;2.70;;
15443;SDS011;7822;48.146;11.576;2022-11-04T00:36:16;3.97;;;2.97;;
15443;SDS011;7822;48.146;11.576;2022-11-04T00:38:45;4.10;;;2.77;;
15443;SDS011;7822;48.146;11.576;2022-11-04T00:41:13;3.23;;;2.70;;
15443;SDS011;7822;48.146;11.576;2022-11-04T00:43:54;3.03;;;2.47;;
15443;SDS011;7822;48.146;11.576;2022-11-04T00:46:22;5.00;;;2.90;;
15443;SDS011;7822;48.146;11.576;2022-11-04T00:48:50;2.53;;;2.30;;
15443;SDS011;7822;48.146;11.576;2022-11-04T00:51:18;4.00;;;2.80;;
15443;SDS011;7822;48.146;11.576;2022-11-04T00:53:48;3.33;;;2.17;;
15443;SDS011;7822;48.146;11.576;2022-11-04T00:56:16;2.40;;;2.20;;
15443;SDS011;7822;48.146;11.576;2022-11-04T00:58:43;2.70;;;2.07;;
15443;SDS011;7822;48.146;11.576;2022-11-04T01:01:13;3.23;;;2.20;;
15443;SDS011;7822;48.146;11.576;2022-11-04T01:03:43;1.67;;;1.53;;
15443;SDS011;7822;48.146;11.576;2022-11-04T01:06:12;2.30;;;2.07;;
15443;SDS011;7822;48.146;11.576;2022-11-04T01:08:39;2.50;;;2.00;;
15443;SDS011;7822;48.146;11.576;2022-11-04T01:11:09;2.33;;;2.00;;
15443;SDS011;7822;48.146;11.576;2022-11-04T01:13:37;2.00;;;1.80;;
15443;SDS011;7822;48.146;11.576;2022-11-04T01:16:06;1.73;;;1.57;;
15443;SDS011;7822;48.146;11.576;2022-11-04T01:18:35;2.40;;;1.60;;
15443;SDS011;7822;48.146;11.576;2022-11-04T01:21:03;3.00;;;1.70;;
15443;SDS011;7822;48.146;11.576;2022-11-04T01:23:33;2.87;;;1.47;;
15443;SDS011;7822;48.146;11.576;2022-11-04T01:26:03;2.03;;;1.80;;
15443;SDS011;7822;48.146;11.576;2022-11-04T01:28:32;1.80;;;1.70;;
15443;SDS011;7822;48.146;11.576;2022-11-04T01:31:04;3.07;;;1.40;;
15443;SDS011;7822;48.146;11.576;2022-11-04T01:33:32;1.50;;;1.40;;
15443;SDS011;7822;48.146;11.576;2022-11-04T01:36:00;1.03;;;1.00;;
15443;SDS011;7822;48.146;11.576;2022-11-04T01:38:28;1.90;;;1.80;;
15443;SDS011;7822;48.146;11.576;2022-11-04T01:40:56;1.90;;;1.30;;
15443;SDS011;7822;48.146;11.576;2022-11-04T01:43:40;3.03;;;1.43;;
15443;SDS011;7822;48.146;11.576;2022-11-04T01:46:12;1.93;;;1.57;;
15443;SDS011;7822;48.146;11.576;2022-11-04T01:48:47;0.90;;;0.90;;
15443;SDS011;7822;48.146;11.576;2022-11-04T01:51:16;1.30;;;1.20;;
15443;SDS011;7822;48.146;11.576;2022-11-04T01:53:44;1.63;;;1.27;;
15443;SDS011;7822;48.146;11.576;2022-11-04T01:56:12;1.00;;;0.77;;
15443;SDS011;7822;48.146;11.576;2022-11-04T01:58:45;1.10;;;0.90;;
15443;SDS011;7822;48.146;11.576;2022-11-04T02:01:16;1.50;;;0.93;;
15443;SDS011;7822;48.146;11.576;2022-11-04T02:03:46;0.80;;;0.70;;
15443;SDS011;7822;48.146;11.576;2022-11-04T02:06:18;2.50;;;0.90;;
15443;SDS011;7822;48.146;11.576;2022-11-04T02:08:47;1.17;;;0.90;;
15443;SDS011;7822;48.146;11.576;2022-11-04T02:11:15;1.17;;;0.80;;
15443;SDS011;7822;48.146;11.576;2022-11-04T02:13:58;1.30;;;0.50;;
15443;SDS011;7822;48.146;11.576;2022-11-04T02:16:29;0.80;;;0.73;;
15443;SDS011;7822;48.146;11.576;2022-11-04T02:19:07;1.07;;;0.80;;
15443;SDS011;7822;48.146;11.576;2022-11-04T02:24:53;0.63;;;0.63;;
15443;SDS011;7822;48.146;11.576;2022-11-04T02:27:34;0.57;;;0.50;;
15443;SDS011;7822;48.146;11.576;2022-11-04T02:30:12;1.73;;;0.80;;
15443;SDS011;7822;48.146;11.576;2022-11-04T02:35:47;0.57;;;0.57;;
15443;SDS011;7822;48.146;11.576;2022-11-04T02:38:28;0.90;;;0.70;;
15443;SDS011;7822;48.146;11.576;2022-11-04T02:40:59;0.60;;;0.60;;
15443;SDS011;7822;48.146;11.576;2022-11-04T02:43:34;0.80;;;0.70;;
15443;SDS011;7822;48.146;11.576;2022-11-04T02:46:11;1.23;;;0.60;;
15443;SDS011;7822;48.146;11.576;2022-11-04T02:48:46;1.00;;;0.80;;
15443;SDS011;7822;48.146;11.576;2022-11-04T02:51:19;0.40;;;0.40;;
15443;SDS011;7822;48.146;11.576;2022-11-04T02:53:52;0.60;;;0.60;;
15443;SDS011;7822;48.146;11.576;2022-11-04T02:56:27;1.53;;;0.63;;
15443;SDS011;7822;48.146;11.576;2022-11-04T02:58:58;0.40;;;0.40;;
15443;SDS011;7822;48.146;11.576;2022-11-04T03:01:33;0.50;;;0.50;;
15443;SDS011;7822;48.146;11.576;2022-11-04T03:04:04;0.83;;;0.70;;
15443;SDS011;7822;48.146;11.576;2022-11-04T03:06:35;0.53;;;0.47;;
15443;SDS011;7822;48.146;11.576;2022-11-04T03:09:04;0.50;;;0.50;;
15443;SDS011;7822;48.146;11.576;2022-11-04T03:11:32;1.70;;;0.70;;
15443;SDS011;7822;48.146;11.576;2022-11-04T03:14:03;0.33;;;0.33;;
15443;SDS011;7822;48.146;11.576;2022-11-04T03:16:35;1.30;;;0.50;;
15443;SDS011;7822;48.146;11.576;2022-11-04T03:19:06;0.50;;;0.50;;
15443;SDS011;7822;48.146;11.576;2022-11-04T03:21:41;0.97;;;0.60;;
15443;SDS011;7822;48.146;11.576;2022-11-04T03:24:16;0.60;;;0.60;;
15443;SDS011;7822;48.146;11.576;2022-11-04T03:26:45;0.50;;;0.50;;
15443;SDS011;7822;48.146;11.576;2022-11-04T03:29:20;0.30;;;0.30;;
15443;SDS011;7822;48.146;11.576;2022-11-04T03:31:57;1.57;;;0.50;;
15443;SDS011;7822;48.146;11.576;2022-11-04T03:34:31;0.87;;;0.40;;
15443;SDS011;7822;48.146;11.576;2022-11-04T03:36:59;0.40;;;0.40;;
15443;SDS011;7822;48.146;11.576;2022-11-04T03:39:27;1.40;;;0.50;;
15443;SDS011;7822;48.146;11.576;2022-11-04T03:41:55;0.60;;;0.60;;
15443;SDS011;7822;48.146;11.576;2022-11-04T03:44:24;0.37;;;0.37;;
15443;SDS011;7822;48.146;11.576;2022-11-04T03:46:53;1.20;;;0.50;;
15443;SDS011;7822;48.146;11.576;2022-11-04T03:49:22;0.30;;;0.30;;
15443;SDS011;7822;48.146;11.576;2022-11-04T03:51:51;0.27;;;0.27;;
15443;SDS011;7822;48.146;11.576;2022-11-04T03:54:19;0.60;;;0.50;;
15443;SDS011;7822;48.146;11.576;2022-11-04T03:59:46;0.70;;;0.50;;
15443;SDS011;7822;48.146;11.576;2022-11-04T04:02:32;0.30;;;0.30;;
15443;SDS011;7822;48.146;11.576;2022-11-04T04:05:09;0.50;;;0.50;;
15443;SDS011;7822;48.146;11.576;2022-11-04T04:07:45;0.40;;;0.40;;
15443;SDS011;7822;48.146;11.576;2022-11-04T04:10:19;0.30;;;0.30;;
15443;SDS011;7822;48.146;11.576;2022-11-04T04:13:08;0.40;;;0.40;;
15443;SDS011;7822;48.146;11.576;2022-11-04T04:15:43;0.30;;;0.30;;
15443;SDS011;7822;48.146;11.576;2022-11-04T04:18:16;0.37;;;0.37;;
15443;SDS011;7822;48.146;11.576;2022-11-04T04:20:49;0.40;;;0.40;;
15443;SDS011;7822;48.146;11.576;2022-11-04T04:23:22;0.70;;;0.60;;
15443;SDS011;7822;48.146;11.576;2022-11-04T04:26:11;0.60;;;0.50;;
15443;SDS011;7822;48.146;11.576;2022-11-04T04:28:58;0.70;;;0.70;;
15443;SDS011;7822;48.146;11.576;2022-11-04T04:31:28;0.70;;;0.60;;
15443;SDS011;7822;48.146;11.576;2022-11-04T04:34:20;0.50;;;0.40;;
15443;SDS011;7822;48.146;11.576;2022-11-04T04:36:50;0.40;;;0.40;;
15443;SDS011;7822;48.146;11.576;2022-11-04T04:39:23;1.13;;;0.30;;
15443;SDS011;7822;48.146;11.576;2022-11-04T04:42:13;1.03;;;0.50;;
15443;SDS011;7822;48.146;11.576;2022-11-04T04:44:58;0.83;;;0.43;;
15443;SDS011;7822;48.146;11.576;2022-11-04T04:47:34;0.70;;;0.40;;
15443;SDS011;7822;48.146;11.576;2022-11-04T04:50:07;0.40;;;0.40;;
15443;SDS011;7822;48.146;11.576;2022-11-04T04:52:37;0.40;;;0.40;;
15443;SDS011;7822;48.146;11.576;2022-11-04T04:55:06;0.40;;;0.40;;
15443;SDS011;7822;48.146;11.576;2022-11-04T04:57:34;0.40;;;0.40;;
15443;SDS011;7822;48.146;11.576;2022-11-04T05:00:03;0.50;;;0.50;;
15443;SDS011;7822;48.146;11.576;2022-11-04T05:02:32;0.30;;;0.30;;
15443;SDS011;7822;48.146;11.576;2022-11-04T05:05:00;0.83;;;0.47;;
15443;SDS011;7822;48.146;11.576;2022-11-04T05:07:29;0.40;;;0.40;;
15443;SDS011;7822;48.146;11.576;2022-11-04T05:09:57;0.40;;;0.40;;
15443;SDS011;7822;48.146;11.576;2022-11-04T05:12:24;0.90;;;0.50;;
15443;SDS011;7822;48.146;11.576;2022-11-04T05:15:12;0.33;;;0.33;;
15443;SDS011;7822;48.146;11.576;2022-11-04T05:17:40;0.50;;;0.50;;
15443;SDS011;7822;48.146;11.576;2022-11-04T05:20:08;0.30;;;0.30;;
15443;SDS011;7822;48.146;11.576;2022-11-04T05:22:38;0.40;;;0.40;;
15443;SDS011;7822;48.146;11.576;2022-11-04T05:25:06;1.27;;;0.73;;
15443;SDS011;7822;48.146;11.576;2022-11-04T05:27:34;0.87;;;0.60;;
15443;SDS011;7822;48.146;11.576;2022-11-04T05:30:01;0.87;;;0.43;;
15443;SDS011;7822;48.146;11.576;2022-11-04T05:32:29;0.40;;;0.40;;
15443;SDS011;7822;48.146;11.576;2022-11-04T05:34:58;0.93;;;0.50;;
15443;SDS011;7822;48.146;11.576;2022-11-04T05:37:26;0.27;;;0.27;;
15443;SDS011;7822;48.146;11.576;2022-11-04T05:39:56;0.30;;;0.30;;
15443;SDS011;7822;48.146;11.576;2022-11-04T05:42:23;1.03;;;0.50;;
15443;SDS011;7822;48.146;11.576;2022-11-04T05:44:51;0.70;;;0.40;;
15443;SDS011;7822;48.146;11.576;2022-11-04T05:47:18;0.60;;;0.43;;
15443;SDS011;7822;48.146;11.576;2022-11-04T05:49:46;0.47;;;0.47;;
15443;SDS011;7822;48.146;11.576;2022-11-04T05:52:14;0.30;;;0.30;;
15443;SDS011;7822;48.146;11.576;2022-11-04T05:54:41;0.33;;;0.33;;
15443;SDS011;7822;48.146;11.576;2022-11-04T05:57:10;0.50;;;0.50;;
15443;SDS011;7822;48.146;11.576;2022-11-04T05:59:38;0.60;;;0.57;;
15443;SDS011;7822;48.146;11.576;2022-11-04T06:02:05;0.40;;;0.40;;
15443;SDS011;7822;48.146;11.576;2022-11-04T06:04:33;1.53;;;0.70;;
15443;SDS011;7822;48.146;11.576;2022-11-04T06:07:01;0.60;;;0.40;;
15443;SDS011;7822;48.146;11.576;2022-11-04T06:09:29;1.27;;;0.40;;
15443;SDS011;7822;48.146;11.576;2022-11-04T06:12:05;0.73;;;0.40;;
15443;SDS011;7822;48.146;11.576;2022-11-04T06:14:36;0.50;;;0.40;;
15443;SDS011;7822;48.146;11.576;2022-11-04T06:17:04;1.33;;;0.40;;
15443;SDS011;7822;48.146;11.576;2022-11-04T06:19:31;0.40;;;0.40;;
15443;SDS011;7822;48.146;11.576;2022-11-04T06:21:59;0.47;;;0.40;;
15443;SDS011;7822;48.146;11.576;2022-11-04T06:24:28;0.67;;;0.50;;
15443;SDS011;7822;48.146;11.576;2022-11-04T06:26:56;0.50;;;0.50;;
15443;SDS011;7822;48.146;11.576;2022-11-04T06:29:23;0.83;;;0.50;;
15443;SDS011;7822;48.146;11.576;2022-11-04T06:31:52;1.80;;;0.63;;
15443;SDS011;7822;48.146;11.576;2022-11-04T06:34:20;0.70;;;0.60;;
15443;SDS011;7822;48.146;11.576;2022-11-04T06:36:48;1.10;;;0.47;;
15443;SDS011;7822;48.146;11.576;2022-11-04T06:39:16;1.10;;;0.73;;
15443;SDS011;7822;48.146;11.576;2022-11-04T06:41:43;1.57;;;0.60;;
15443;SDS011;7822;48.146;11.576;2022-11-04T06:44:16;0.50;;;0.50;;
15443;SDS011;7822;48.146;11.576;2022-11-04T06:46:44;1.23;;;0.60;;
15443;SDS011;7822;48.146;11.576;2022-11-04T06:49:13;0.80;;;0.80;;
15443;SDS011;7822;48.146;11.576;2022-11-04T06:51:43;1.83;;;0.70;;
15443;SDS011;7822;48.146;11.576;2022-11-04T06:54:10;2.27;;;0.87;;
15443;SDS011;7822;48.146;11.576;2022-11-04T06:56:38;1.83;;;0.60;;
15443;SDS011;7822;48.146;11.576;2022-11-04T06:59:07;1.63;;;0.80;;
15443;SDS011;7822;48.146;11.576;2022-11-04T07:01:36;2.00;;;0.60;;
15443;SDS011;7822;48.146;11.576;2022-11-04T07:04:03;0.90;;;0.80;;
15443;SDS011;7822;48.146;11.576;2022-11-04T07:06:33;1.50;;;0.70;;
15443;SDS011;7822;48.146;11.576;2022-11-04T07:09:06;0.97;;;0.60;;
15443;SDS011;7822;48.146;11.576;2022-11-04T07:11:33;1.03;;;0.57;;
15443;SDS011;7822;48.146;11.576;2022-11-04T07:14:01;1.83;;;0.93;;
15443;SDS011;7822;48.146;11.576;2022-11-04T07:16:29;1.33;;;0.57;;
15443;SDS011;7822;48.146;11.576;2022-11-04T07:18:56;0.90;;;0.70;;
15443;SDS011;7822;48.146;11.576;2022-11-04T07:21:24;0.90;;;0.60;;
15443;SDS011;7822;48.146;11.576;2022-11-04T07:23:53;0.87;;;0.57;;
15443;SDS011;7822;48.146;11.576;2022-11-04T07:26:21;2.33;;;0.93;;
15443;SDS011;7822;48.146;11.576;2022-11-04T07:28:49;0.73;;;0.60;;
15443;SDS011;7822;48.146;11.576;2022-11-04T07:31:20;0.90;;;0.60;;
15443;SDS011;7822;48.146;11.576;2022-11-04T07:33:52;0.70;;;0.57;;
15443;SDS011;7822;48.146;11.576;2022-11-04T07:36:20;1.77;;;0.70;;
15443;SDS011;7822;48.146;11.576;2022-11-04T07:38:47;1.80;;;0.80;;
15443;SDS011;7822;48.146;11.576;2022-11-04T07:41:17;1.00;;;0.70;;
15443;SDS011;7822;48.146;11.576;2022-11-04T07:43:48;1.90;;;0.67;;
15443;SDS011;7822;48.146;11.576;2022-11-04T07:46:17;2.90;;;0.80;;
15443;SDS011;7822;48.146;11.576;2022-11-04T07:48:46;0.80;;;0.80;;
15443;SDS011;7822;48.146;11.576;2022-11-04T07:51:15;0.70;;;0.70;;
15443;SDS011;7822;48.146;11.576;2022-11-04T07:53:44;1.70;;;0.70;;
15443;SDS011;7822;48.146;11.576;2022-11-04T07:56:12;1.87;;;0.67;;
15443;SDS011;7822;48.146;11.576;2022-11-04T07:58:41;1.07;;;0.70;;
15443;SDS011;7822;48.146;11.576;2022-11-04T08:01:10;1.03;;;0.80;;
15443;SDS011;7822;48.146;11.576;2022-11-04T08:03:39;0.90;;;0.60;;
15443;SDS011;7822;48.146;11.576;2022-11-04T08:06:08;1.70;;;0.93;;
15443;SDS011;7822;48.146;11.576;2022-11-04T08:08:37;1.80;;;0.73;;
15443;SDS011;7822;48.146;11.576;2022-11-04T08:11:06;1.40;;;0.60;;
15443;SDS011;7822;48.146;11.576;2022-11-04T08:13:43;0.73;;;0.60;;
15443;SDS011;7822;48.146;11.576;2022-11-04T08:16:13;1.03;;;0.80;;
15443;SDS011;7822;48.146;11.576;2022-11-04T08:18:42;0.83;;;0.70;;
15443;SDS011;7822;48.146;11.576;2022-11-04T08:21:11;1.17;;;0.77;;
15443;SDS011;7822;48.146;11.576;2022-11-04T08:23:39;1.80;;;1.00;;
15443;SDS011;7822;48.146;11.576;2022-11-04T08:26:07;0.60;;;0.57;;
15443;SDS011;7822;48.146;11.576;2022-11-04T08:28:36;1.83;;;1.10;;
15443;SDS011;7822;48.146;11.576;2022-11-04T08:31:06;2.00;;;0.73;;
15443;SDS011;7822;48.146;11.576;2022-11-04T08:33:36;1.23;;;0.90;;
15443;SDS011;7822;48.146;11.576;2022-11-04T08:36:04;1.40;;;0.60;;
15443;SDS011;7822;48.146;11.576;2022-11-04T08:38:34;1.03;;;0.70;;
15443;SDS011;7822;48.146;11.576;2022-11-04T08:41:03;1.17;;;0.80;;
15443;SDS011;7822;48.146;11.576;2022-11-04T08:43:32;1.27;;;0.93;;
15443;SDS011;7822;48.146;11.576;2022-11-04T08:46:01;0.60;;;0.60;;
15443;SDS011;7822;48.146;11.576;2022-11-04T08:48:31;4.23;;;0.83;;
15443;SDS011;7822;48.146;11.576;2022-11-04T08:51:03;0.70;;;0.60;;
15443;SDS011;7822;48.146;11.576;2022-11-04T08:53:32;0.70;;;0.70;;
15443;SDS011;7822;48.146;11.576;2022-11-04T08:56:07;1.70;;;0.90;;
15443;SDS011;7822;48.146;11.576;2022-11-04T08:58:35;1.73;;;0.87;;
15443;SDS011;7822;48.146;11.576;2022-11-04T09:01:03;1.77;;;1.10;;
15443;SDS011;7822;48.146;11.576;2022-11-04T09:03:33;2.73;;;0.83;;
15443;SDS011;7822;48.146;11.576;2022-11-04T09:06:04;1.63;;;1.10;;
15443;SDS011;7822;48.146;11.576;2022-11-04T09:08:32;2.83;;;1.00;;
15443;SDS011;7822;48.146;11.576;2022-11-04T09:11:00;1.27;;;0.90;;
15443;SDS011;7822;48.146;11.576;2022-11-04T09:13:27;1.53;;;0.73;;
15443;SDS011;7822;48.146;11.576;2022-11-04T09:15:55;1.03;;;0.70;;
15443;SDS011;7822;48.146;11.576;2022-11-04T09:18:22;1.23;;;0.60;;
15443;SDS011;7822;48.146;11.576;2022-11-04T09:20:51;1.00;;;0.90;;
15443;SDS011;7822;48.146;11.576;2022-11-04T09:23:19;1.07;;;0.70;;
15443;SDS011;7822;48.146;11.576;2022-11-04T09:25:47;0.70;;;0.70;;
15443;SDS011;7822;48.146;11.576;2022-11-04T09:28:14;1.43;;;0.90;;
15443;SDS011;7822;48.146;11.576;2022-11-04T09:30:42;1.10;;;0.63;;
15443;SDS011;7822;48.146;11.576;2022-11-04T09:33:09;1.77;;;0.93;;
15443;SDS011;7822;48.146;11.576;2022-11-04T09:35:37;0.90;;;0.80;;
15443;SDS011;7822;48.146;11.576;2022-11-04T09:38:06;1.60;;;0.80;;
15443;SDS011;7822;48.146;11.576;2022-11-04T09:40:34;1.23;;;1.13;;
15443;SDS011;7822;48.146;11.576;2022-11-04T09:43:06;1.20;;;1.00;;
15443;SDS011;7822;48.146;11.576;2022-11-04T09:45:42;1.40;;;1.10;;
15443;SDS011;7822;48.146;11.576;2022-11-04T09:48:11;1.97;;;1.20;;
15443;SDS011;7822;48.146;11.576;2022-11-04T09:50:53;1.73;;;1.00;;
15443;SDS011;7822;48.146;11.576;2022-11-04T09:53:27;2.03;;;1.17;;
15443;SDS011;7822;48.146;11.576;2022-11-04T09:56:02;1.27;;;0.90;;
15443;SDS011;7822;48.146;11.576;2022-11-04T09:58:36;1.20;;;1.10;;
15443;SDS011;7822;48.146;11.576;2022-11-04T10:01:05;1.10;;;0.80;;
15443;SDS011;7822;48.146;11.576;2022-11-04T10:03:52;0.80;;;0.80;;
15443;SDS011;7822;48.146;11.576;2022-11-04T10:06:34;0.63;;;0.60;;
15443;SDS011;7822;48.146;11.576;2022-11-04T10:09:16;0.70;;;0.70;;
15443;SDS011;7822;48.146;11.576;2022-11-04T10:11:53;1.33;;;0.90;;
15443;SDS011;7822;48.146;11.576;2022-11-04T10:14:37;0.70;;;0.70;;
15443;SDS011;7822;48.146;11.576;2022-11-04T10:17:22;1.23;;;0.70;;
15443;SDS011;7822;48.146;11.576;2022-11-04T10:20:02;2.93;;;1.03;;
15443;SDS011;7822;48.146;11.576;2022-11-04T10:22:46;1.07;;;0.97;;
15443;SDS011;7822;48.146;11.576;2022-11-04T10:25:27;1.67;;;0.80;;
15443;SDS011;7822;48.146;11.576;2022-11-04T10:28:01;1.97;;;1.13;;
15443;SDS011;7822;48.146;11.576;2022-11-04T10:30:29;2.13;;;1.10;;
15443;SDS011;7822;48.146;11.576;2022-11-04T10:33:01;1.70;;;1.33;;
15443;SDS011;7822;48.146;11.576;2022-11-04T10:35:37;1.30;;;1.20;;
15443;SDS011;7822;48.146;11.576;2022-11-04T10:38:15;1.23;;;0.97;;
15443;SDS011;7822;48.146;11.576;2022-11-04T10:40:50;2.40;;;1.20;;
15443;SDS011;7822;48.146;11.576;2022-11-04T10:43:23;1.10;;;1.00;;
15443;SDS011;7822;48.146;11.576;2022-11-04T10:46:01;2.87;;;1.00;;
15443;SDS011;7822;48.146;11.576;2022-11-04T10:48:41;2.00;;;1.10;;
15443;SDS011;7822;48.146;11.576;2022-11-04T10:51:15;2.10;;;1.20;;
15443;SDS011;7822;48.146;11.576;2022-11-04T10:53:47;1.03;;;0.90;;
15443;SDS011;7822;48.146;11.576;2022-11-04T10:56:24;2.87;;;1.20;;
15443;SDS011;7822;48.146;11.576;2022-11-04T10:59:06;2.93;;;1.37;;
15443;SDS011;7822;48.146;11.576;2022-11-04T11:01:49;1.23;;;1.10;;
15443;SDS011;7822;48.146;11.576;2022-11-04T11:04:27;1.30;;;1.17;;
15443;SDS011;7822;48.146;11.576;2022-11-04T11:06:56;2.83;;;1.43;;
15443;SDS011;7822;48.146;11.576;2022-11-04T11:09:27;1.63;;;1.07;;
15443;SDS011;7822;48.146;11.576;2022-11-04T11:11:57;1.17;;;1.07;;
15443;SDS011;7822;48.146;11.576;2022-11-04T11:14:31;3.27;;;1.37;;
15443;SDS011;7822;48.146;11.576;2022-11-04T11:17:20;1.17;;;1.00;;
15443;SDS011;7822;48.146;11.576;2022-11-04T11:19:54;1.57;;;0.67;;
15443;SDS011;7822;48.146;11.576;2022-11-04T11:22:28;1.60;;;1.07;;
15443;SDS011;7822;48.146;11.576;2022-11-04T11:27:55;1.10;;;1.00;;
15443;SDS011;7822;48.146;11.576;2022-11-04T11:30:25;1.53;;;0.93;;
15443;SDS011;7822;48.146;11.576;2022-11-04T11:32:58;1.23;;;0.90;;
15443;SDS011;7822;48.146;11.576;2022-11-04T11:35:30;1.07;;;1.00;;
15443;SDS011;7822;48.146;11.576;2022-11-04T11:38:13;4.73;;;1.47;;
15443;SDS011;7822;48.146;11.576;2022-11-04T11:40:44;1.00;;;1.00;;
15443;SDS011;7822;48.146;11.576;2022-11-04T11:43:37;2.50;;;0.90;;
15443;SDS011;7822;48.146;11.576;2022-11-04T11:46:08;1.80;;;1.23;;
15443;SDS011;7822;48.146;11.576;2022-11-04T11:48:38;0.90;;;0.90;;
15443;SDS011;7822;48.146;11.576;2022-11-04T11:51:09;2.70;;;0.90;;
15443;SDS011;7822;48.146;11.576;2022-11-04T11:53:38;1.90;;;1.10;;
15443;SDS011;7822;48.146;11.576;2022-11-04T11:56:14;0.93;;;0.80;;
15443;SDS011;7822;48.146;11.576;2022-11-04T11:58:52;1.00;;;0.90;;
15443;SDS011;7822;48.146;11.576;2022-11-04T12:01:52;1.47;;;1.03;;
15443;SDS011;7822;48.146;11.576;2022-11-04T12:04:28;1.60;;;0.90;;
15443;SDS011;7822;48.146;11.576;2022-11-04T12:07:18;1.40;;;0.90;;
15443;SDS011;7822;48.146;11.576;2022-11-04T12:10:15;1.10;;;1.00;;
15443;SDS011;7822;48.146;11.576;2022-11-04T12:13:11;1.27;;;1.00;;
15443;SDS011;7822;48.146;11.576;2022-11-04T12:15:57;1.67;;;0.77;;
15443;SDS011;7822;48.146;11.576;2022-11-04T12:21:54;1.00;;;0.63;;
15443;SDS011;7822;48.146;11.576;2022-11-04T12:24:28;3.53;;;0.80;;
15443;SDS011;7822;48.146;11.576;2022-11-04T12:27:07;1.53;;;0.60;;
15443;SDS011;7822;48.146;11.576;2022-11-04T12:29:47;0.70;;;0.57;;
15443;SDS011;7822;48.146;11.576;2022-11-04T12:32:28;0.60;;;0.60;;
15443;SDS011;7822;48.146;11.576;2022-11-04T12:35:10;1.00;;;0.70;;
15443;SDS011;7822;48.146;11.576;2022-11-04T12:37:52;0.73;;;0.60;;
15443;SDS011;7822;48.146;11.576;2022-11-04T12:40:31;2.43;;;0.60;;
15443;SDS011;7822;48.146;11.576;2022-11-04T12:43:18;0.90;;;0.80;;
15443;SDS011;7822;48.146;11.576;2022-11-04T12:45:53;1.00;;;0.87;;
15443;SDS011;7822;48.146;11.576;2022-11-04T12:48:36;1.50;;;1.17;;
15443;SDS011;7822;48.146;11.576;2022-11-04T12:51:24;0.80;;;0.80;;
15443;SDS011;7822;48.146;11.576;2022-11-04T12:57:01;0.90;;;0.60;;
15443;SDS011;7822;48.146;11.576;2022-11-04T12:59:45;1.10;;;1.00;;
15443;SDS011;7822;48.146;11.576;2022-11-04T13:02:24;2.37;;;0.80;;
15443;SDS011;7822;48.146;11.576;2022-11-04T13:04:59;1.13;;;0.60;;
15443;SDS011;7822;48.146;11.576;2022-11-04T13:07:32;1.13;;;0.77;;
15443;SDS011;7822;48.146;11.576;2022-11-04T13:10:06;1.30;;;0.70;;
15443;SDS011;7822;48.146;11.576;2022-11-04T13:12:43;1.37;;;0.70;;
15443;SDS011;7822;48.146;11.576;2022-11-04T13:15:14;0.60;;;0.60;;
15443;SDS011;7822;48.146;11.576;2022-11-04T13:17:45;1.57;;;0.77;;
15443;SDS011;7822;48.146;11.576;2022-11-04T13:20:19;1.33;;;1.10;;
15443;SDS011;7822;48.146;11.576;2022-11-04T13:22:56;1.03;;;0.93;;
15443;SDS011;7822;48.146;11.576;2022-11-04T13:25:29;4.17;;;1.30;;
15443;SDS011;7822;48.146;11.576;2022-11-04T13:28:00;1.30;;;0.97;;
15443;SDS011;7822;48.146;11.576;2022-11-04T13:30:29;1.57;;;1.00;;
15443;SDS011;7822;48.146;11.576;2022-11-04T13:33:07;3.50;;;1.10;;
15443;SDS011;7822;48.146;11.576;2022-11-04T13:35:46;3.70;;;0.93;;
15443;SDS011;7822;48.146;11.576;2022-11-04T13:38:23;2.53;;;0.67;;
15443;SDS011;7822;48.146;11.576;2022-11-04T13:41:05;1.13;;;1.00;;
15443;SDS011;7822;48.146;11.576;2022-11-04T13:43:50;1.03;;;0.90;;
15443;SDS011;7822;48.146;11.576;2022-11-04T13:46:22;0.77;;;0.70;;
15443;SDS011;7822;48.146;11.576;2022-11-04T13:49:00;2.60;;;1.33;;
15443;SDS011;7822;48.146;11.576;2022-11-04T13:51:39;1.90;;;0.80;;
15443;SDS011;7822;48.146;11.576;2022-11-04T13:54:26;2.30;;;1.13;;
15443;SDS011;7822;48.146;11.576;2022-11-04T13:57:02;1.03;;;0.73;;
15443;SDS011;7822;48.146;11.576;2022-11-04T13:59:32;1.50;;;0.73;;
15443;SDS011;7822;48.146;11.576;2022-11-04T14:08:13;1.00;;;0.73;;
15443;SDS011;7822;48.146;11.576;2022-11-04T14:10:43;1.03;;;0.90;;
15443;SDS011;7822;48.146;11.576;2022-11-04T14:13:40;1.10;;;1.00;;
15443;SDS011;7822;48.146;11.576;2022-11-04T14:16:09;1.53;;;1.20;;
15443;SDS011;7822;48.146;11.576;2022-11-04T14:18:39;1.80;;;0.83;;
15443;SDS011;7822;48.146;11.576;2022-11-04T14:21:08;1.53;;;1.00;;
15443;SDS011;7822;48.146;11.576;2022-11-04T14:23:40;1.10;;;0.77;;
15443;SDS011;7822;48.146;11.576;2022-11-04T14:26:11;1.83;;;1.10;;
15443;SDS011;7822;48.146;11.576;2022-11-04T14:28:42;2.20;;;1.20;;
15443;SDS011;7822;48.146;11.576;2022-11-04T14:31:11;2.10;;;1.20;;
15443;SDS011;7822;48.146;11.576;2022-11-04T14:33:49;2.67;;;1.60;;
15443;SDS011;7822;48.146;11.576;2022-11-04T14:36:27;1.60;;;1.13;;
15443;SDS011;7822;48.146;11.576;2022-11-04T14:39:03;1.77;;;1.00;;
15443;SDS011;7822;48.146;11.576;2022-11-04T14:44:31;1.77;;;1.10;;
15443;SDS011;7822;48.146;11.576;2022-11-04T14:47:05;1.57;;;1.00;;
15443;SDS011;7822;48.146;11.576;2022-11-04T14:49:43;1.20;;;1.00;;
15443;SDS011;7822;48.146;11.576;2022-11-04T14:52:14;2.40;;;1.20;;
15443;SDS011;7822;48.146;11.576;2022-11-04T14:54:47;3.17;;;1.10;;
15443;SDS011;7822;48.146;11.576;2022-11-04T14:57:17;1.27;;;1.03;;
15443;SDS011;7822;48.146;11.576;2022-11-04T14:59:46;2.23;;;0.83;;
15443;SDS011;7822;48.146;11.576;2022-11-04T15:02:16;2.20;;;1.20;;
15443;SDS011;7822;48.146;11.576;2022-11-04T15:04:47;1.03;;;0.83;;
15443;SDS011;7822;48.146;11.576;2022-11-04T15:07:27;1.37;;;1.23;;
15443;SDS011;7822;48.146;11.576;2022-11-04T15:10:01;1.07;;;0.87;;
15443;SDS011;7822;48.146;11.576;2022-11-04T15:12:44;2.00;;;0.70;;
15443;SDS011;7822;48.146;11.576;2022-11-04T15:15:25;1.17;;;0.73;;
15443;SDS011;7822;48.146;11.576;2022-11-04T15:18:14;1.60;;;0.90;;
15443;SDS011;7822;48.146;11.576;2022-11-04T15:20:45;1.07;;;0.77;;
15443;SDS011;7822;48.146;11.576;2022-11-04T15:23:15;0.77;;;0.77;;
15443;SDS011;7822;48.146;11.576;2022-11-04T15:25:47;1.10;;;0.90;;
15443;SDS011;7822;48.146;11.576;2022-11-04T15:28:17;0.93;;;0.70;;
15443;SDS011;7822;48.146;11.576;2022-11-04T15:30:57;1.07;;;0.90;;
15443;SDS011;7822;48.146;11.576;2022-11-04T15:33:27;1.20;;;1.10;;
15443;SDS011;7822;48.146;11.576;2022-11-04T15:35:56;2.07;;;1.03;;
15443;SDS011;7822;48.146;11.576;2022-11-04T15:38:25;1.10;;;1.10;;
15443;SDS011;7822;48.146;11.576;2022-11-04T15:40:56;0.93;;;0.80;;
15443;SDS011;7822;48.146;11.576;2022-11-04T15:43:45;1.30;;;0.83;;
15443;SDS011;7822;48.146;11.576;2022-11-04T15:46:16;1.33;;;0.83;;
15443;SDS011;7822;48.146;11.576;2022-11-04T15:48:58;2.83;;;1.40;;
15443;SDS011;7822;48.146;11.576;2022-11-04T15:51:28;1.73;;;1.23;;